sensor_id;sensor_type;location;lat;lon;timestamp;P1;durP1;ratioP1;P2;durP2;ratioP2
77234;SDS011;66253;50.526;14.974;2023-03-31T00:00:50;19.00;;;9.00;;
77234;SDS011;66253;50.526;14.974;2023-03-31T00:03:21;16.10;;;7.00;;
77234;SDS011;66253;50.526;14.974;2023-03-31T00:10:04;16.60;;;7.40;;
77234;SDS011;66253;50.526;14.974;2023-03-31T00:13:49;15.40;;;6.70;;
77234;SDS011;66253;50.526;14.974;2023-03-31T00:16:26;14.80;;;7.30;;
77234;SDS011;66253;50.526;14.974;2023-03-31T00:19:31;20.40;;;7.70;;
77234;SDS011;66253;50.526;14.974;2023-03-31T00:22:28;13.70;;;6.80;;
77234;SDS011;66253;50.526;14.974;2023-03-31T00:25:55;12.90;;;6.20;;
77234;SDS011;66253;50.526;14.974;2023-03-31T00:28:40;13.00;;;5.80;;
77234;SDS011;66253;50.526;14.974;2023-03-31T00:38:16;12.20;;;5.70;;
77234;SDS011;66253;50.526;14.974;2023-03-31T00:41:13;12.80;;;5.90;;
77234;SDS011;66253;50.526;14.974;2023-03-31T00:54:37;16.10;;;7.50;;
77234;SDS011;66253;50.526;14.974;2023-03-31T01:00:45;13.50;;;6.10;;
77234;SDS011;66253;50.526;14.974;2023-03-31T01:03:26;11.50;;;6.00;;
77234;SDS011;66253;50.526;14.974;2023-03-31T01:07:02;15.40;;;7.20;;
77234;SDS011;66253;50.526;14.974;2023-03-31T01:09:26;17.20;;;7.10;;
77234;SDS011;66253;50.526;14.974;2023-03-31T01:12:20;15.40;;;6.70;;
77234;SDS011;66253;50.526;14.974;2023-03-31T01:15:47;14.10;;;6.40;;
77234;SDS011;66253;50.526;14.974;2023-03-31T01:18:36;16.90;;;8.10;;
77234;SDS011;66253;50.526;14.974;2023-03-31T01:51:02;19.70;;;8.10;;
77234;SDS011;66253;50.526;14.974;2023-03-31T02:00:21;16.00;;;7.00;;
77234;SDS011;66253;50.526;14.974;2023-03-31T02:02:59;23.60;;;10.60;;
77234;SDS011;66253;50.526;14.974;2023-03-31T02:06:05;19.20;;;8.50;;
77234;SDS011;66253;50.526;14.974;2023-03-31T02:08:45;17.90;;;8.20;;
77234;SDS011;66253;50.526;14.974;2023-03-31T02:14:34;18.80;;;8.10;;
77234;SDS011;66253;50.526;14.974;2023-03-31T02:17:13;21.10;;;9.80;;
77234;SDS011;66253;50.526;14.974;2023-03-31T02:20:13;25.70;;;10.90;;
77234;SDS011;66253;50.526;14.974;2023-03-31T02:23:40;19.30;;;8.80;;
77234;SDS011;66253;50.526;14.974;2023-03-31T02:32:49;23.60;;;8.70;;
77234;SDS011;66253;50.526;14.974;2023-03-31T02:35:57;16.90;;;8.60;;
77234;SDS011;66253;50.526;14.974;2023-03-31T02:42:06;17.30;;;8.40;;
77234;SDS011;66253;50.526;14.974;2023-03-31T02:47:35;17.60;;;7.90;;
77234;SDS011;66253;50.526;14.974;2023-03-31T02:54:40;19.20;;;9.50;;
77234;SDS011;66253;50.526;14.974;2023-03-31T03:00:15;12.20;;;6.30;;
77234;SDS011;66253;50.526;14.974;2023-03-31T03:03:20;26.60;;;9.70;;
77234;SDS011;66253;50.526;14.974;2023-03-31T03:09:43;19.20;;;10.00;;
77234;SDS011;66253;50.526;14.974;2023-03-31T03:19:27;14.30;;;7.70;;
77234;SDS011;66253;50.526;14.974;2023-03-31T03:22:30;16.50;;;8.10;;
77234;SDS011;66253;50.526;14.974;2023-03-31T03:25:04;13.80;;;7.00;;
77234;SDS011;66253;50.526;14.974;2023-03-31T03:31:43;12.00;;;5.60;;
77234;SDS011;66253;50.526;14.974;2023-03-31T03:34:16;12.00;;;5.70;;
77234;SDS011;66253;50.526;14.974;2023-03-31T03:37:05;14.80;;;5.90;;
77234;SDS011;66253;50.526;14.974;2023-03-31T03:40:06;16.90;;;6.20;;
77234;SDS011;66253;50.526;14.974;2023-03-31T03:46:09;14.60;;;6.90;;
77234;SDS011;66253;50.526;14.974;2023-03-31T03:52:28;13.90;;;6.80;;
77234;SDS011;66253;50.526;14.974;2023-03-31T03:58:33;16.90;;;8.00;;
77234;SDS011;66253;50.526;14.974;2023-03-31T04:01:25;17.90;;;8.40;;
77234;SDS011;66253;50.526;14.974;2023-03-31T04:04:29;16.10;;;6.50;;
77234;SDS011;66253;50.526;14.974;2023-03-31T04:07:32;14.40;;;6.10;;
77234;SDS011;66253;50.526;14.974;2023-03-31T04:14:46;15.20;;;5.70;;
77234;SDS011;66253;50.526;14.974;2023-03-31T04:17:24;17.90;;;8.30;;
77234;SDS011;66253;50.526;14.974;2023-03-31T04:20:47;17.10;;;7.20;;
77234;SDS011;66253;50.526;14.974;2023-03-31T04:23:33;15.40;;;6.10;;
77234;SDS011;66253;50.526;14.974;2023-03-31T04:26:52;16.00;;;6.00;;
77234;SDS011;66253;50.526;14.974;2023-03-31T04:33:46;13.40;;;6.20;;
77234;SDS011;66253;50.526;14.974;2023-03-31T04:39:54;18.70;;;7.70;;
77234;SDS011;66253;50.526;14.974;2023-03-31T04:49:34;20.20;;;8.20;;
77234;SDS011;66253;50.526;14.974;2023-03-31T04:58:50;13.60;;;5.70;;
77234;SDS011;66253;50.526;14.974;2023-03-31T05:01:59;13.60;;;6.10;;
77234;SDS011;66253;50.526;14.974;2023-03-31T05:10:59;15.10;;;6.40;;
77234;SDS011;66253;50.526;14.974;2023-03-31T05:20:26;16.90;;;7.20;;
77234;SDS011;66253;50.526;14.974;2023-03-31T05:23:36;23.90;;;10.30;;
77234;SDS011;66253;50.526;14.974;2023-03-31T05:26:29;18.60;;;8.90;;
77234;SDS011;66253;50.526;14.974;2023-03-31T05:29:46;15.50;;;7.50;;
77234;SDS011;66253;50.526;14.974;2023-03-31T05:32:13;20.60;;;9.10;;
77234;SDS011;66253;50.526;14.974;2023-03-31T05:34:38;23.90;;;8.80;;
77234;SDS011;66253;50.526;14.974;2023-03-31T05:37:04;32.30;;;14.70;;
77234;SDS011;66253;50.526;14.974;2023-03-31T05:39:36;22.30;;;9.50;;
77234;SDS011;66253;50.526;14.974;2023-03-31T05:42:02;20.20;;;9.00;;
77234;SDS011;66253;50.526;14.974;2023-03-31T05:44:32;22.40;;;10.40;;
77234;SDS011;66253;50.526;14.974;2023-03-31T05:47:07;13.00;;;5.80;;
77234;SDS011;66253;50.526;14.974;2023-03-31T05:49:54;16.40;;;6.90;;
77234;SDS011;66253;50.526;14.974;2023-03-31T05:52:22;15.90;;;7.90;;
77234;SDS011;66253;50.526;14.974;2023-03-31T05:54:50;14.80;;;7.10;;
77234;SDS011;66253;50.526;14.974;2023-03-31T05:57:15;15.10;;;7.10;;
77234;SDS011;66253;50.526;14.974;2023-03-31T05:59:43;14.70;;;6.60;;
77234;SDS011;66253;50.526;14.974;2023-03-31T06:02:17;15.60;;;7.30;;
77234;SDS011;66253;50.526;14.974;2023-03-31T06:04:42;16.20;;;7.10;;
77234;SDS011;66253;50.526;14.974;2023-03-31T06:07:31;13.50;;;6.00;;
77234;SDS011;66253;50.526;14.974;2023-03-31T06:09:56;13.40;;;6.60;;
77234;SDS011;66253;50.526;14.974;2023-03-31T06:12:37;14.40;;;6.70;;
77234;SDS011;66253;50.526;14.974;2023-03-31T06:15:03;14.80;;;6.20;;
77234;SDS011;66253;50.526;14.974;2023-03-31T06:20:07;15.30;;;7.40;;
77234;SDS011;66253;50.526;14.974;2023-03-31T06:22:33;16.50;;;10.10;;
77234;SDS011;66253;50.526;14.974;2023-03-31T06:25:08;14.20;;;8.00;;
77234;SDS011;66253;50.526;14.974;2023-03-31T06:27:33;12.80;;;7.00;;
77234;SDS011;66253;50.526;14.974;2023-03-31T06:29:59;11.40;;;6.30;;
77234;SDS011;66253;50.526;14.974;2023-03-31T06:32:25;11.40;;;6.30;;
77234;SDS011;66253;50.526;14.974;2023-03-31T06:34:56;8.70;;;4.30;;
77234;SDS011;66253;50.526;14.974;2023-03-31T06:37:21;11.00;;;5.80;;
77234;SDS011;66253;50.526;14.974;2023-03-31T06:39:47;9.10;;;4.80;;
77234;SDS011;66253;50.526;14.974;2023-03-31T06:42:13;10.50;;;7.10;;
77234;SDS011;66253;50.526;14.974;2023-03-31T06:44:39;8.70;;;4.70;;
77234;SDS011;66253;50.526;14.974;2023-03-31T06:47:05;8.90;;;4.30;;
77234;SDS011;66253;50.526;14.974;2023-03-31T06:49:31;7.70;;;4.70;;
77234;SDS011;66253;50.526;14.974;2023-03-31T06:51:56;6.70;;;3.50;;
77234;SDS011;66253;50.526;14.974;2023-03-31T06:54:22;7.00;;;3.60;;
77234;SDS011;66253;50.526;14.974;2023-03-31T06:56:47;8.10;;;4.60;;
77234;SDS011;66253;50.526;14.974;2023-03-31T06:59:13;8.50;;;3.70;;
77234;SDS011;66253;50.526;14.974;2023-03-31T07:01:38;6.70;;;4.20;;
77234;SDS011;66253;50.526;14.974;2023-03-31T07:04:06;7.60;;;3.20;;
77234;SDS011;66253;50.526;14.974;2023-03-31T07:06:33;6.40;;;3.20;;
77234;SDS011;66253;50.526;14.974;2023-03-31T07:08:58;6.30;;;3.30;;
77234;SDS011;66253;50.526;14.974;2023-03-31T07:11:24;8.80;;;4.50;;
77234;SDS011;66253;50.526;14.974;2023-03-31T07:13:50;5.30;;;3.40;;
77234;SDS011;66253;50.526;14.974;2023-03-31T07:16:15;6.90;;;4.40;;
77234;SDS011;66253;50.526;14.974;2023-03-31T07:18:40;6.60;;;3.60;;
77234;SDS011;66253;50.526;14.974;2023-03-31T07:21:06;6.50;;;3.10;;
77234;SDS011;66253;50.526;14.974;2023-03-31T07:23:32;6.20;;;2.50;;
77234;SDS011;66253;50.526;14.974;2023-03-31T07:25:59;6.60;;;2.70;;
77234;SDS011;66253;50.526;14.974;2023-03-31T07:28:27;6.20;;;2.90;;
77234;SDS011;66253;50.526;14.974;2023-03-31T07:30:53;5.20;;;2.80;;
77234;SDS011;66253;50.526;14.974;2023-03-31T07:33:18;6.60;;;3.10;;
77234;SDS011;66253;50.526;14.974;2023-03-31T07:35:44;5.00;;;1.40;;
77234;SDS011;66253;50.526;14.974;2023-03-31T07:38:10;7.30;;;2.50;;
77234;SDS011;66253;50.526;14.974;2023-03-31T07:40:37;4.60;;;2.10;;
77234;SDS011;66253;50.526;14.974;2023-03-31T07:43:03;4.90;;;1.80;;
77234;SDS011;66253;50.526;14.974;2023-03-31T07:45:29;6.00;;;1.90;;
77234;SDS011;66253;50.526;14.974;2023-03-31T07:47:55;5.70;;;1.90;;
77234;SDS011;66253;50.526;14.974;2023-03-31T07:50:21;6.20;;;2.70;;
77234;SDS011;66253;50.526;14.974;2023-03-31T07:52:48;4.90;;;2.00;;
77234;SDS011;66253;50.526;14.974;2023-03-31T07:55:15;5.90;;;2.00;;
77234;SDS011;66253;50.526;14.974;2023-03-31T07:57:41;5.40;;;2.00;;
77234;SDS011;66253;50.526;14.974;2023-03-31T08:00:08;5.50;;;2.10;;
77234;SDS011;66253;50.526;14.974;2023-03-31T08:02:36;7.50;;;2.10;;
77234;SDS011;66253;50.526;14.974;2023-03-31T08:05:03;5.80;;;2.80;;
77234;SDS011;66253;50.526;14.974;2023-03-31T08:07:32;5.80;;;2.50;;
77234;SDS011;66253;50.526;14.974;2023-03-31T08:10:01;7.00;;;1.70;;
77234;SDS011;66253;50.526;14.974;2023-03-31T08:12:28;5.90;;;2.10;;
77234;SDS011;66253;50.526;14.974;2023-03-31T08:14:54;6.00;;;2.40;;
77234;SDS011;66253;50.526;14.974;2023-03-31T08:17:20;6.90;;;2.80;;
77234;SDS011;66253;50.526;14.974;2023-03-31T08:19:45;7.30;;;2.80;;
77234;SDS011;66253;50.526;14.974;2023-03-31T08:22:13;6.00;;;2.30;;
77234;SDS011;66253;50.526;14.974;2023-03-31T08:24:39;7.10;;;3.00;;
77234;SDS011;66253;50.526;14.974;2023-03-31T08:27:06;6.30;;;2.70;;
77234;SDS011;66253;50.526;14.974;2023-03-31T08:29:32;7.50;;;2.70;;
77234;SDS011;66253;50.526;14.974;2023-03-31T08:31:58;6.70;;;2.50;;
77234;SDS011;66253;50.526;14.974;2023-03-31T08:34:24;6.60;;;2.30;;
77234;SDS011;66253;50.526;14.974;2023-03-31T08:36:49;8.20;;;2.70;;
77234;SDS011;66253;50.526;14.974;2023-03-31T08:39:15;7.30;;;2.60;;
77234;SDS011;66253;50.526;14.974;2023-03-31T08:41:54;6.60;;;2.60;;
77234;SDS011;66253;50.526;14.974;2023-03-31T08:44:44;8.60;;;3.70;;
77234;SDS011;66253;50.526;14.974;2023-03-31T08:47:19;6.00;;;2.80;;
77234;SDS011;66253;50.526;14.974;2023-03-31T08:52:22;6.80;;;2.80;;
77234;SDS011;66253;50.526;14.974;2023-03-31T08:55:00;8.10;;;3.00;;
77234;SDS011;66253;50.526;14.974;2023-03-31T08:57:31;8.00;;;3.00;;
77234;SDS011;66253;50.526;14.974;2023-03-31T09:00:09;11.50;;;2.90;;
77234;SDS011;66253;50.526;14.974;2023-03-31T09:02:47;7.00;;;3.10;;
77234;SDS011;66253;50.526;14.974;2023-03-31T09:08:04;6.60;;;2.60;;
77234;SDS011;66253;50.526;14.974;2023-03-31T09:10:42;8.10;;;3.40;;
77234;SDS011;66253;50.526;14.974;2023-03-31T09:16:29;14.10;;;4.60;;
77234;SDS011;66253;50.526;14.974;2023-03-31T09:19:01;7.50;;;4.10;;
77234;SDS011;66253;50.526;14.974;2023-03-31T09:21:30;8.40;;;3.90;;
77234;SDS011;66253;50.526;14.974;2023-03-31T09:26:53;7.40;;;2.70;;
77234;SDS011;66253;50.526;14.974;2023-03-31T09:32:22;6.20;;;3.60;;
77234;SDS011;66253;50.526;14.974;2023-03-31T09:35:01;8.80;;;4.30;;
77234;SDS011;66253;50.526;14.974;2023-03-31T09:37:41;8.20;;;3.10;;
77234;SDS011;66253;50.526;14.974;2023-03-31T09:40:12;9.20;;;4.10;;
77234;SDS011;66253;50.526;14.974;2023-03-31T09:42:45;9.00;;;4.40;;
77234;SDS011;66253;50.526;14.974;2023-03-31T09:45:16;8.20;;;3.40;;
77234;SDS011;66253;50.526;14.974;2023-03-31T09:47:45;9.30;;;2.90;;
77234;SDS011;66253;50.526;14.974;2023-03-31T09:50:14;8.00;;;4.50;;
77234;SDS011;66253;50.526;14.974;2023-03-31T09:52:50;6.40;;;3.30;;
77234;SDS011;66253;50.526;14.974;2023-03-31T09:55:24;8.30;;;4.00;;
77234;SDS011;66253;50.526;14.974;2023-03-31T09:58:10;15.00;;;7.30;;
77234;SDS011;66253;50.526;14.974;2023-03-31T10:00:39;10.70;;;4.80;;
77234;SDS011;66253;50.526;14.974;2023-03-31T10:03:09;9.10;;;4.70;;
77234;SDS011;66253;50.526;14.974;2023-03-31T10:05:48;8.80;;;3.70;;
77234;SDS011;66253;50.526;14.974;2023-03-31T10:10:48;10.30;;;5.10;;
77234;SDS011;66253;50.526;14.974;2023-03-31T10:13:24;10.80;;;6.10;;
77234;SDS011;66253;50.526;14.974;2023-03-31T10:16:03;10.90;;;5.80;;
77234;SDS011;66253;50.526;14.974;2023-03-31T10:18:34;11.20;;;3.70;;
77234;SDS011;66253;50.526;14.974;2023-03-31T10:21:03;8.90;;;3.90;;
77234;SDS011;66253;50.526;14.974;2023-03-31T10:23:31;8.80;;;4.40;;
77234;SDS011;66253;50.526;14.974;2023-03-31T10:25:58;10.10;;;4.30;;
77234;SDS011;66253;50.526;14.974;2023-03-31T10:28:27;7.60;;;3.30;;
77234;SDS011;66253;50.526;14.974;2023-03-31T10:30:58;8.70;;;3.50;;
77234;SDS011;66253;50.526;14.974;2023-03-31T10:33:31;10.90;;;3.60;;
77234;SDS011;66253;50.526;14.974;2023-03-31T10:36:11;7.60;;;3.40;;
77234;SDS011;66253;50.526;14.974;2023-03-31T10:38:41;10.40;;;4.70;;
77234;SDS011;66253;50.526;14.974;2023-03-31T10:41:10;9.10;;;3.90;;
77234;SDS011;66253;50.526;14.974;2023-03-31T10:43:38;11.10;;;5.90;;
77234;SDS011;66253;50.526;14.974;2023-03-31T10:46:06;9.90;;;4.70;;
77234;SDS011;66253;50.526;14.974;2023-03-31T10:48:33;7.00;;;3.30;;
77234;SDS011;66253;50.526;14.974;2023-03-31T10:51:04;8.70;;;3.50;;
77234;SDS011;66253;50.526;14.974;2023-03-31T10:53:43;8.80;;;4.30;;
77234;SDS011;66253;50.526;14.974;2023-03-31T10:58:54;11.60;;;5.10;;
77234;SDS011;66253;50.526;14.974;2023-03-31T11:04:50;11.80;;;4.80;;
77234;SDS011;66253;50.526;14.974;2023-03-31T11:10:17;9.10;;;3.40;;
77234;SDS011;66253;50.526;14.974;2023-03-31T11:18:05;8.90;;;3.40;;
77234;SDS011;66253;50.526;14.974;2023-03-31T11:29:24;5.90;;;2.40;;
77234;SDS011;66253;50.526;14.974;2023-03-31T11:42:41;8.40;;;3.40;;
77234;SDS011;66253;50.526;14.974;2023-03-31T11:48:01;7.70;;;3.20;;
77234;SDS011;66253;50.526;14.974;2023-03-31T11:50:35;10.90;;;4.10;;
77234;SDS011;66253;50.526;14.974;2023-03-31T11:53:13;10.20;;;3.30;;
77234;SDS011;66253;50.526;14.974;2023-03-31T11:55:42;7.60;;;3.70;;
77234;SDS011;66253;50.526;14.974;2023-03-31T11:58:15;10.40;;;3.90;;
77234;SDS011;66253;50.526;14.974;2023-03-31T12:00:54;8.90;;;4.30;;
77234;SDS011;66253;50.526;14.974;2023-03-31T12:06:13;8.80;;;3.30;;
77234;SDS011;66253;50.526;14.974;2023-03-31T12:08:53;7.80;;;3.80;;
77234;SDS011;66253;50.526;14.974;2023-03-31T12:17:14;8.10;;;4.10;;
77234;SDS011;66253;50.526;14.974;2023-03-31T12:22:32;8.90;;;3.40;;
77234;SDS011;66253;50.526;14.974;2023-03-31T12:25:03;10.00;;;3.60;;
77234;SDS011;66253;50.526;14.974;2023-03-31T12:27:32;12.20;;;4.30;;
77234;SDS011;66253;50.526;14.974;2023-03-31T12:30:04;8.70;;;4.00;;
77234;SDS011;66253;50.526;14.974;2023-03-31T12:32:35;8.70;;;3.60;;
77234;SDS011;66253;50.526;14.974;2023-03-31T12:37:58;12.00;;;4.70;;
77234;SDS011;66253;50.526;14.974;2023-03-31T12:40:40;12.10;;;5.30;;
77234;SDS011;66253;50.526;14.974;2023-03-31T12:57:20;9.50;;;5.50;;
77234;SDS011;66253;50.526;14.974;2023-03-31T13:02:38;9.50;;;4.50;;
77234;SDS011;66253;50.526;14.974;2023-03-31T13:08:08;10.20;;;5.70;;
77234;SDS011;66253;50.526;14.974;2023-03-31T13:13:35;10.90;;;4.30;;
77234;SDS011;66253;50.526;14.974;2023-03-31T13:16:08;10.40;;;4.80;;
77234;SDS011;66253;50.526;14.974;2023-03-31T13:18:37;9.50;;;4.60;;
77234;SDS011;66253;50.526;14.974;2023-03-31T13:21:07;9.00;;;4.00;;
77234;SDS011;66253;50.526;14.974;2023-03-31T13:23:34;9.90;;;5.00;;
77234;SDS011;66253;50.526;14.974;2023-03-31T13:26:01;9.40;;;5.50;;
77234;SDS011;66253;50.526;14.974;2023-03-31T13:28:35;8.30;;;4.00;;
77234;SDS011;66253;50.526;14.974;2023-03-31T13:31:04;9.90;;;5.30;;
77234;SDS011;66253;50.526;14.974;2023-03-31T13:33:48;10.50;;;4.40;;
77234;SDS011;66253;50.526;14.974;2023-03-31T13:45:05;11.90;;;5.40;;
77234;SDS011;66253;50.526;14.974;2023-03-31T13:50:54;10.00;;;4.50;;
77234;SDS011;66253;50.526;14.974;2023-03-31T13:53:51;8.70;;;4.30;;
77234;SDS011;66253;50.526;14.974;2023-03-31T14:05:35;10.00;;;4.30;;
77234;SDS011;66253;50.526;14.974;2023-03-31T14:10:36;7.20;;;3.10;;
77234;SDS011;66253;50.526;14.974;2023-03-31T14:13:09;8.50;;;3.70;;
77234;SDS011;66253;50.526;14.974;2023-03-31T14:15:38;13.00;;;4.60;;
77234;SDS011;66253;50.526;14.974;2023-03-31T14:18:09;11.40;;;4.40;;
77234;SDS011;66253;50.526;14.974;2023-03-31T14:20:48;7.80;;;3.20;;
77234;SDS011;66253;50.526;14.974;2023-03-31T14:31:37;8.90;;;2.90;;
77234;SDS011;66253;50.526;14.974;2023-03-31T14:39:28;5.50;;;2.70;;
77234;SDS011;66253;50.526;14.974;2023-03-31T14:42:02;6.40;;;2.90;;
77234;SDS011;66253;50.526;14.974;2023-03-31T14:44:32;6.70;;;3.00;;
77234;SDS011;66253;50.526;14.974;2023-03-31T14:46:58;7.00;;;2.50;;
77234;SDS011;66253;50.526;14.974;2023-03-31T14:49:28;6.10;;;2.30;;
77234;SDS011;66253;50.526;14.974;2023-03-31T14:52:20;5.70;;;2.60;;
77234;SDS011;66253;50.526;14.974;2023-03-31T14:54:49;5.80;;;2.20;;
77234;SDS011;66253;50.526;14.974;2023-03-31T14:57:18;6.50;;;2.30;;
77234;SDS011;66253;50.526;14.974;2023-03-31T14:59:48;5.40;;;3.40;;
77234;SDS011;66253;50.526;14.974;2023-03-31T15:02:18;6.10;;;2.60;;
77234;SDS011;66253;50.526;14.974;2023-03-31T15:04:55;8.40;;;4.80;;
77234;SDS011;66253;50.526;14.974;2023-03-31T15:07:21;7.70;;;3.30;;
77234;SDS011;66253;50.526;14.974;2023-03-31T15:09:48;8.70;;;4.70;;
77234;SDS011;66253;50.526;14.974;2023-03-31T15:12:16;8.70;;;3.40;;
77234;SDS011;66253;50.526;14.974;2023-03-31T15:14:48;8.00;;;2.80;;
77234;SDS011;66253;50.526;14.974;2023-03-31T15:17:22;4.80;;;1.90;;
77234;SDS011;66253;50.526;14.974;2023-03-31T15:19:56;4.80;;;1.80;;
77234;SDS011;66253;50.526;14.974;2023-03-31T15:22:28;5.30;;;1.80;;
77234;SDS011;66253;50.526;14.974;2023-03-31T15:24:54;5.50;;;2.10;;
77234;SDS011;66253;50.526;14.974;2023-03-31T15:27:29;4.80;;;1.70;;
77234;SDS011;66253;50.526;14.974;2023-03-31T15:29:55;3.90;;;2.20;;
77234;SDS011;66253;50.526;14.974;2023-03-31T15:34:52;4.60;;;2.30;;
77234;SDS011;66253;50.526;14.974;2023-03-31T15:37:53;6.00;;;2.10;;
77234;SDS011;66253;50.526;14.974;2023-03-31T15:40:21;6.90;;;2.70;;
77234;SDS011;66253;50.526;14.974;2023-03-31T15:42:55;5.20;;;1.70;;
77234;SDS011;66253;50.526;14.974;2023-03-31T15:47:55;5.50;;;2.20;;
77234;SDS011;66253;50.526;14.974;2023-03-31T15:50:22;4.30;;;1.90;;
77234;SDS011;66253;50.526;14.974;2023-03-31T15:52:49;5.20;;;1.60;;
77234;SDS011;66253;50.526;14.974;2023-03-31T15:55:25;4.30;;;1.30;;
77234;SDS011;66253;50.526;14.974;2023-03-31T15:57:51;5.00;;;2.10;;
77234;SDS011;66253;50.526;14.974;2023-03-31T16:03:27;4.40;;;1.70;;
77234;SDS011;66253;50.526;14.974;2023-03-31T16:06:00;3.90;;;1.20;;
77234;SDS011;66253;50.526;14.974;2023-03-31T16:08:52;4.50;;;1.40;;
77234;SDS011;66253;50.526;14.974;2023-03-31T16:11:25;3.60;;;1.10;;
77234;SDS011;66253;50.526;14.974;2023-03-31T16:13:58;3.50;;;1.60;;
77234;SDS011;66253;50.526;14.974;2023-03-31T16:16:27;3.40;;;1.00;;
77234;SDS011;66253;50.526;14.974;2023-03-31T16:18:59;3.40;;;1.00;;
77234;SDS011;66253;50.526;14.974;2023-03-31T16:21:32;3.20;;;1.00;;
77234;SDS011;66253;50.526;14.974;2023-03-31T16:24:04;4.10;;;1.50;;
77234;SDS011;66253;50.526;14.974;2023-03-31T16:26:30;5.40;;;2.20;;
77234;SDS011;66253;50.526;14.974;2023-03-31T16:28:56;4.90;;;1.80;;
77234;SDS011;66253;50.526;14.974;2023-03-31T16:31:28;5.80;;;2.60;;
77234;SDS011;66253;50.526;14.974;2023-03-31T16:33:58;5.60;;;1.90;;
77234;SDS011;66253;50.526;14.974;2023-03-31T16:36:25;4.80;;;1.70;;
77234;SDS011;66253;50.526;14.974;2023-03-31T16:38:51;4.90;;;2.50;;
77234;SDS011;66253;50.526;14.974;2023-03-31T16:41:18;6.30;;;2.40;;
77234;SDS011;66253;50.526;14.974;2023-03-31T16:43:45;6.50;;;2.60;;
77234;SDS011;66253;50.526;14.974;2023-03-31T16:46:11;5.90;;;2.10;;
77234;SDS011;66253;50.526;14.974;2023-03-31T16:48:37;6.10;;;2.70;;
77234;SDS011;66253;50.526;14.974;2023-03-31T16:51:02;5.20;;;2.50;;
77234;SDS011;66253;50.526;14.974;2023-03-31T16:53:30;4.70;;;1.90;;
77234;SDS011;66253;50.526;14.974;2023-03-31T16:56:03;5.10;;;2.20;;
77234;SDS011;66253;50.526;14.974;2023-03-31T16:58:32;4.60;;;1.80;;
77234;SDS011;66253;50.526;14.974;2023-03-31T17:00:58;3.90;;;1.40;;
77234;SDS011;66253;50.526;14.974;2023-03-31T17:03:24;5.30;;;2.10;;
77234;SDS011;66253;50.526;14.974;2023-03-31T17:05:51;7.00;;;2.40;;
77234;SDS011;66253;50.526;14.974;2023-03-31T17:08:19;5.70;;;1.50;;
77234;SDS011;66253;50.526;14.974;2023-03-31T17:10:50;6.80;;;2.10;;
77234;SDS011;66253;50.526;14.974;2023-03-31T17:13:18;5.30;;;2.30;;
77234;SDS011;66253;50.526;14.974;2023-03-31T17:15:45;6.30;;;2.80;;
77234;SDS011;66253;50.526;14.974;2023-03-31T17:18:14;8.10;;;2.80;;
77234;SDS011;66253;50.526;14.974;2023-03-31T17:20:40;7.10;;;3.10;;
77234;SDS011;66253;50.526;14.974;2023-03-31T17:23:06;6.00;;;2.20;;
77234;SDS011;66253;50.526;14.974;2023-03-31T17:25:32;6.70;;;2.30;;
77234;SDS011;66253;50.526;14.974;2023-03-31T17:28:00;6.20;;;3.10;;
77234;SDS011;66253;50.526;14.974;2023-03-31T17:30:30;8.60;;;2.50;;
77234;SDS011;66253;50.526;14.974;2023-03-31T17:33:01;6.60;;;3.10;;
77234;SDS011;66253;50.526;14.974;2023-03-31T17:35:28;8.00;;;3.00;;
77234;SDS011;66253;50.526;14.974;2023-03-31T17:37:54;5.80;;;2.90;;
77234;SDS011;66253;50.526;14.974;2023-03-31T17:40:21;8.40;;;2.60;;
77234;SDS011;66253;50.526;14.974;2023-03-31T17:42:50;7.60;;;3.00;;
77234;SDS011;66253;50.526;14.974;2023-03-31T17:45:22;8.40;;;3.40;;
77234;SDS011;66253;50.526;14.974;2023-03-31T17:47:47;6.30;;;3.60;;
77234;SDS011;66253;50.526;14.974;2023-03-31T17:50:13;7.50;;;3.30;;
77234;SDS011;66253;50.526;14.974;2023-03-31T17:52:39;10.50;;;3.80;;
77234;SDS011;66253;50.526;14.974;2023-03-31T17:55:05;9.30;;;4.40;;
77234;SDS011;66253;50.526;14.974;2023-03-31T17:57:31;14.00;;;6.40;;
77234;SDS011;66253;50.526;14.974;2023-03-31T17:59:56;13.90;;;5.90;;
77234;SDS011;66253;50.526;14.974;2023-03-31T18:02:22;11.20;;;4.80;;
77234;SDS011;66253;50.526;14.974;2023-03-31T18:04:48;9.00;;;4.00;;
77234;SDS011;66253;50.526;14.974;2023-03-31T18:07:14;10.50;;;4.60;;
77234;SDS011;66253;50.526;14.974;2023-03-31T18:09:42;10.20;;;4.30;;
77234;SDS011;66253;50.526;14.974;2023-03-31T18:12:08;11.10;;;4.70;;
77234;SDS011;66253;50.526;14.974;2023-03-31T18:14:34;10.60;;;5.20;;
77234;SDS011;66253;50.526;14.974;2023-03-31T18:16:59;11.30;;;6.10;;
77234;SDS011;66253;50.526;14.974;2023-03-31T18:19:26;11.40;;;6.60;;
77234;SDS011;66253;50.526;14.974;2023-03-31T18:21:51;14.60;;;6.60;;
77234;SDS011;66253;50.526;14.974;2023-03-31T18:24:17;19.10;;;8.90;;
77234;SDS011;66253;50.526;14.974;2023-03-31T18:26:44;17.90;;;9.40;;
77234;SDS011;66253;50.526;14.974;2023-03-31T18:29:11;19.10;;;9.30;;
77234;SDS011;66253;50.526;14.974;2023-03-31T18:31:37;21.90;;;8.60;;
77234;SDS011;66253;50.526;14.974;2023-03-31T18:34:02;19.40;;;8.90;;
77234;SDS011;66253;50.526;14.974;2023-03-31T18:36:28;18.70;;;7.40;;
77234;SDS011;66253;50.526;14.974;2023-03-31T18:38:54;24.10;;;10.20;;
77234;SDS011;66253;50.526;14.974;2023-03-31T18:41:20;17.50;;;7.90;;
77234;SDS011;66253;50.526;14.974;2023-03-31T18:43:47;16.00;;;6.60;;
77234;SDS011;66253;50.526;14.974;2023-03-31T18:46:15;16.00;;;6.40;;
77234;SDS011;66253;50.526;14.974;2023-03-31T18:48:41;17.30;;;7.00;;
77234;SDS011;66253;50.526;14.974;2023-03-31T18:51:06;27.60;;;11.90;;
77234;SDS011;66253;50.526;14.974;2023-03-31T18:53:32;31.90;;;13.00;;
77234;SDS011;66253;50.526;14.974;2023-03-31T18:55:58;34.00;;;15.20;;
77234;SDS011;66253;50.526;14.974;2023-03-31T18:58:26;18.10;;;8.60;;
77234;SDS011;66253;50.526;14.974;2023-03-31T19:00:53;17.10;;;7.80;;
77234;SDS011;66253;50.526;14.974;2023-03-31T19:03:20;14.60;;;6.80;;
77234;SDS011;66253;50.526;14.974;2023-03-31T19:05:46;13.00;;;6.80;;
77234;SDS011;66253;50.526;14.974;2023-03-31T19:08:12;11.20;;;5.00;;
77234;SDS011;66253;50.526;14.974;2023-03-31T19:10:38;10.20;;;4.20;;
77234;SDS011;66253;50.526;14.974;2023-03-31T19:13:04;12.80;;;6.10;;
77234;SDS011;66253;50.526;14.974;2023-03-31T19:15:30;14.20;;;7.20;;
77234;SDS011;66253;50.526;14.974;2023-03-31T19:17:55;20.30;;;8.10;;
77234;SDS011;66253;50.526;14.974;2023-03-31T19:20:21;15.70;;;7.90;;
77234;SDS011;66253;50.526;14.974;2023-03-31T19:22:48;15.20;;;6.80;;
77234;SDS011;66253;50.526;14.974;2023-03-31T19:25:15;11.60;;;5.10;;
77234;SDS011;66253;50.526;14.974;2023-03-31T19:27:42;12.30;;;6.60;;
77234;SDS011;66253;50.526;14.974;2023-03-31T19:30:14;10.40;;;4.50;;
77234;SDS011;66253;50.526;14.974;2023-03-31T19:32:45;7.60;;;2.90;;
77234;SDS011;66253;50.526;14.974;2023-03-31T19:35:13;7.90;;;2.60;;
77234;SDS011;66253;50.526;14.974;2023-03-31T19:37:40;7.10;;;2.50;;
77234;SDS011;66253;50.526;14.974;2023-03-31T19:40:05;8.40;;;3.60;;
77234;SDS011;66253;50.526;14.974;2023-03-31T19:42:32;10.30;;;3.60;;
77234;SDS011;66253;50.526;14.974;2023-03-31T19:44:58;9.40;;;3.70;;
77234;SDS011;66253;50.526;14.974;2023-03-31T19:47:24;11.90;;;4.40;;
77234;SDS011;66253;50.526;14.974;2023-03-31T19:49:50;7.30;;;3.10;;
77234;SDS011;66253;50.526;14.974;2023-03-31T19:52:15;10.20;;;4.30;;